Terminal Aerodrome Forecast
Issued by NWS

Home | Current Version | Previous Version | Text Only | Print | Product List | Glossary On
Versions: 1 2 3 4 5 6 7 8 9 10 11 12 13 14 15
000
FTUS45 KTFX 230500
TAFHVR
TAF
KHVR 230520Z 2306/2406 27010KT P6SM -SHRA OVC050
     FM231200 25020KT P6SM SCT030 BKN120
     FM231800 27022G35KT P6SM SCT070 BKN180
     FM240200 26015KT P6SM BKN150=

USA.gov is the U.S. government's official web portal to all federal, state and local government web resources and services.